sensor_id;sensor_type;location;lat;lon;timestamp;P1;durP1;ratioP1;P2;durP2;ratioP2
38455;SDS011;24237;50.106;20.014;2023-02-03T00:01:06;9.25;;;4.00;;
38455;SDS011;24237;50.106;20.014;2023-02-03T00:03:32;7.95;;;3.72;;
38455;SDS011;24237;50.106;20.014;2023-02-03T00:05:57;8.80;;;4.22;;
38455;SDS011;24237;50.106;20.014;2023-02-03T00:10:50;6.68;;;3.30;;
38455;SDS011;24237;50.106;20.014;2023-02-03T00:13:16;8.05;;;3.47;;
38455;SDS011;24237;50.106;20.014;2023-02-03T00:15:42;11.27;;;4.53;;
38455;SDS011;24237;50.106;20.014;2023-02-03T00:18:08;6.82;;;3.22;;
38455;SDS011;24237;50.106;20.014;2023-02-03T00:20:33;8.05;;;3.50;;
38455;SDS011;24237;50.106;20.014;2023-02-03T00:23:06;6.32;;;2.85;;
38455;SDS011;24237;50.106;20.014;2023-02-03T00:25:33;6.82;;;2.90;;
38455;SDS011;24237;50.106;20.014;2023-02-03T00:27:59;10.00;;;3.55;;
38455;SDS011;24237;50.106;20.014;2023-02-03T00:30:26;10.88;;;3.53;;
38455;SDS011;24237;50.106;20.014;2023-02-03T00:32:52;9.15;;;3.15;;
38455;SDS011;24237;50.106;20.014;2023-02-03T00:35:18;8.70;;;3.22;;
38455;SDS011;24237;50.106;20.014;2023-02-03T00:37:43;9.30;;;3.03;;
38455;SDS011;24237;50.106;20.014;2023-02-03T00:40:14;6.78;;;3.40;;
38455;SDS011;24237;50.106;20.014;2023-02-03T00:42:40;6.22;;;2.83;;
38455;SDS011;24237;50.106;20.014;2023-02-03T00:45:06;9.68;;;2.88;;
38455;SDS011;24237;50.106;20.014;2023-02-03T00:47:32;9.60;;;3.47;;
38455;SDS011;24237;50.106;20.014;2023-02-03T00:49:57;4.85;;;2.33;;
38455;SDS011;24237;50.106;20.014;2023-02-03T00:52:23;5.43;;;2.10;;
38455;SDS011;24237;50.106;20.014;2023-02-03T00:54:48;6.85;;;2.22;;
38455;SDS011;24237;50.106;20.014;2023-02-03T00:57:14;3.70;;;2.00;;
38455;SDS011;24237;50.106;20.014;2023-02-03T00:59:39;2.40;;;1.25;;
38455;SDS011;24237;50.106;20.014;2023-02-03T01:02:05;5.65;;;1.95;;
38455;SDS011;24237;50.106;20.014;2023-02-03T01:04:30;1.30;;;0.70;;
38455;SDS011;24237;50.106;20.014;2023-02-03T01:06:56;1.52;;;1.10;;
38455;SDS011;24237;50.106;20.014;2023-02-03T01:09:24;2.95;;;1.05;;
38455;SDS011;24237;50.106;20.014;2023-02-03T01:11:50;5.60;;;1.80;;
38455;SDS011;24237;50.106;20.014;2023-02-03T01:14:15;3.53;;;1.20;;
38455;SDS011;24237;50.106;20.014;2023-02-03T01:16:41;3.63;;;1.02;;
38455;SDS011;24237;50.106;20.014;2023-02-03T01:19:07;2.85;;;1.55;;
38455;SDS011;24237;50.106;20.014;2023-02-03T01:21:33;1.95;;;1.13;;
38455;SDS011;24237;50.106;20.014;2023-02-03T01:24:00;4.90;;;0.85;;
38455;SDS011;24237;50.106;20.014;2023-02-03T01:26:26;3.25;;;1.42;;
38455;SDS011;24237;50.106;20.014;2023-02-03T01:28:56;2.45;;;1.35;;
38455;SDS011;24237;50.106;20.014;2023-02-03T01:31:24;3.38;;;1.00;;
38455;SDS011;24237;50.106;20.014;2023-02-03T01:33:52;1.80;;;1.13;;
38455;SDS011;24237;50.106;20.014;2023-02-03T01:36:18;3.80;;;1.50;;
38455;SDS011;24237;50.106;20.014;2023-02-03T01:38:45;4.57;;;1.45;;
38455;SDS011;24237;50.106;20.014;2023-02-03T01:41:13;3.70;;;1.45;;
38455;SDS011;24237;50.106;20.014;2023-02-03T01:43:42;4.00;;;1.65;;
38455;SDS011;24237;50.106;20.014;2023-02-03T01:48:51;3.50;;;1.60;;
38455;SDS011;24237;50.106;20.014;2023-02-03T01:51:21;4.38;;;2.30;;
38455;SDS011;24237;50.106;20.014;2023-02-03T01:53:48;5.45;;;2.33;;
38455;SDS011;24237;50.106;20.014;2023-02-03T01:56:17;6.00;;;3.28;;
38455;SDS011;24237;50.106;20.014;2023-02-03T01:58:43;8.57;;;3.50;;
38455;SDS011;24237;50.106;20.014;2023-02-03T02:01:10;11.38;;;4.28;;
38455;SDS011;24237;50.106;20.014;2023-02-03T02:03:37;13.80;;;4.32;;
38455;SDS011;24237;50.106;20.014;2023-02-03T02:06:09;11.15;;;4.85;;
38455;SDS011;24237;50.106;20.014;2023-02-03T02:08:36;8.93;;;4.25;;
38455;SDS011;24237;50.106;20.014;2023-02-03T02:11:02;10.52;;;4.78;;
38455;SDS011;24237;50.106;20.014;2023-02-03T02:13:30;9.50;;;4.10;;
38455;SDS011;24237;50.106;20.014;2023-02-03T02:18:46;8.95;;;4.18;;
38455;SDS011;24237;50.106;20.014;2023-02-03T02:21:22;9.10;;;3.70;;
38455;SDS011;24237;50.106;20.014;2023-02-03T02:24:10;8.02;;;3.80;;
38455;SDS011;24237;50.106;20.014;2023-02-03T02:43:44;10.27;;;3.83;;
38455;SDS011;24237;50.106;20.014;2023-02-03T02:49:01;11.05;;;4.53;;
38455;SDS011;24237;50.106;20.014;2023-02-03T02:51:31;9.68;;;4.57;;
38455;SDS011;24237;50.106;20.014;2023-02-03T02:53:58;13.05;;;6.13;;
38455;SDS011;24237;50.106;20.014;2023-02-03T02:56:27;16.13;;;6.57;;
38455;SDS011;24237;50.106;20.014;2023-02-03T02:58:55;16.85;;;7.20;;
38455;SDS011;24237;50.106;20.014;2023-02-03T03:01:23;19.88;;;6.88;;
38455;SDS011;24237;50.106;20.014;2023-02-03T03:03:49;16.67;;;7.15;;
38455;SDS011;24237;50.106;20.014;2023-02-03T03:06:30;16.95;;;5.90;;
38455;SDS011;24237;50.106;20.014;2023-02-03T03:11:25;17.23;;;6.50;;
38455;SDS011;24237;50.106;20.014;2023-02-03T03:13:54;14.57;;;6.47;;
38455;SDS011;24237;50.106;20.014;2023-02-03T03:16:29;14.03;;;7.23;;
38455;SDS011;24237;50.106;20.014;2023-02-03T03:19:01;16.73;;;7.35;;
38455;SDS011;24237;50.106;20.014;2023-02-03T03:21:39;16.83;;;7.38;;
38455;SDS011;24237;50.106;20.014;2023-02-03T03:24:11;18.95;;;8.07;;
38455;SDS011;24237;50.106;20.014;2023-02-03T03:27:01;17.77;;;8.07;;
38455;SDS011;24237;50.106;20.014;2023-02-03T03:29:34;18.27;;;8.73;;
38455;SDS011;24237;50.106;20.014;2023-02-03T03:32:06;17.50;;;7.97;;
38455;SDS011;24237;50.106;20.014;2023-02-03T03:34:32;20.65;;;8.13;;
38455;SDS011;24237;50.106;20.014;2023-02-03T03:37:02;16.83;;;7.63;;
38455;SDS011;24237;50.106;20.014;2023-02-03T03:44:56;16.35;;;7.63;;
38455;SDS011;24237;50.106;20.014;2023-02-03T03:47:37;18.42;;;5.72;;
38455;SDS011;24237;50.106;20.014;2023-02-03T03:50:25;23.63;;;7.93;;
38455;SDS011;24237;50.106;20.014;2023-02-03T03:52:54;17.35;;;7.55;;
38455;SDS011;24237;50.106;20.014;2023-02-03T03:55:24;19.75;;;7.95;;
38455;SDS011;24237;50.106;20.014;2023-02-03T03:58:01;14.27;;;7.63;;
38455;SDS011;24237;50.106;20.014;2023-02-03T04:00:34;16.88;;;7.22;;
38455;SDS011;24237;50.106;20.014;2023-02-03T04:03:13;16.05;;;8.05;;
38455;SDS011;24237;50.106;20.014;2023-02-03T04:05:52;15.35;;;6.63;;
38455;SDS011;24237;50.106;20.014;2023-02-03T04:08:17;15.18;;;7.50;;
38455;SDS011;24237;50.106;20.014;2023-02-03T04:10:43;13.32;;;6.40;;
38455;SDS011;24237;50.106;20.014;2023-02-03T04:13:10;17.27;;;7.35;;
38455;SDS011;24237;50.106;20.014;2023-02-03T04:15:36;17.83;;;6.80;;
38455;SDS011;24237;50.106;20.014;2023-02-03T04:18:02;19.58;;;6.85;;
38455;SDS011;24237;50.106;20.014;2023-02-03T04:20:29;17.17;;;7.10;;
38455;SDS011;24237;50.106;20.014;2023-02-03T04:22:56;15.20;;;6.47;;
38455;SDS011;24237;50.106;20.014;2023-02-03T04:25:22;22.40;;;6.53;;
38455;SDS011;24237;50.106;20.014;2023-02-03T04:27:49;14.75;;;7.18;;
38455;SDS011;24237;50.106;20.014;2023-02-03T04:30:14;13.10;;;6.22;;
38455;SDS011;24237;50.106;20.014;2023-02-03T04:32:42;14.57;;;5.93;;
38455;SDS011;24237;50.106;20.014;2023-02-03T04:35:08;10.73;;;4.82;;
38455;SDS011;24237;50.106;20.014;2023-02-03T04:37:34;15.95;;;6.60;;
38455;SDS011;24237;50.106;20.014;2023-02-03T04:40:00;11.38;;;5.10;;
38455;SDS011;24237;50.106;20.014;2023-02-03T04:42:25;11.25;;;5.43;;
38455;SDS011;24237;50.106;20.014;2023-02-03T04:44:51;13.13;;;6.13;;
38455;SDS011;24237;50.106;20.014;2023-02-03T04:47:17;13.18;;;5.93;;
38455;SDS011;24237;50.106;20.014;2023-02-03T04:49:42;11.13;;;5.80;;
38455;SDS011;24237;50.106;20.014;2023-02-03T04:52:08;11.68;;;5.15;;
38455;SDS011;24237;50.106;20.014;2023-02-03T04:54:35;12.70;;;5.80;;
38455;SDS011;24237;50.106;20.014;2023-02-03T04:57:00;11.68;;;5.72;;
38455;SDS011;24237;50.106;20.014;2023-02-03T04:59:26;10.82;;;5.45;;
38455;SDS011;24237;50.106;20.014;2023-02-03T05:01:52;11.80;;;5.78;;
38455;SDS011;24237;50.106;20.014;2023-02-03T05:04:18;16.58;;;6.30;;
38455;SDS011;24237;50.106;20.014;2023-02-03T05:06:43;16.25;;;7.03;;
38455;SDS011;24237;50.106;20.014;2023-02-03T05:09:09;17.58;;;7.03;;
38455;SDS011;24237;50.106;20.014;2023-02-03T05:11:35;14.80;;;6.65;;
38455;SDS011;24237;50.106;20.014;2023-02-03T05:14:01;17.50;;;7.20;;
38455;SDS011;24237;50.106;20.014;2023-02-03T05:16:27;13.52;;;6.28;;
38455;SDS011;24237;50.106;20.014;2023-02-03T05:18:52;19.60;;;6.38;;
38455;SDS011;24237;50.106;20.014;2023-02-03T05:21:18;12.90;;;6.68;;
38455;SDS011;24237;50.106;20.014;2023-02-03T05:23:44;15.18;;;6.82;;
38455;SDS011;24237;50.106;20.014;2023-02-03T05:26:10;16.50;;;7.05;;
38455;SDS011;24237;50.106;20.014;2023-02-03T05:28:35;19.73;;;7.50;;
38455;SDS011;24237;50.106;20.014;2023-02-03T05:31:01;16.10;;;7.68;;
38455;SDS011;24237;50.106;20.014;2023-02-03T05:33:27;19.30;;;7.68;;
38455;SDS011;24237;50.106;20.014;2023-02-03T05:35:53;14.97;;;7.27;;
38455;SDS011;24237;50.106;20.014;2023-02-03T05:38:19;17.80;;;7.75;;
38455;SDS011;24237;50.106;20.014;2023-02-03T05:40:48;18.65;;;8.27;;
38455;SDS011;24237;50.106;20.014;2023-02-03T05:46:46;19.92;;;7.93;;
38455;SDS011;24237;50.106;20.014;2023-02-03T05:49:15;17.73;;;7.90;;
38455;SDS011;24237;50.106;20.014;2023-02-03T05:51:41;18.08;;;7.80;;
38455;SDS011;24237;50.106;20.014;2023-02-03T05:54:07;16.38;;;7.72;;
38455;SDS011;24237;50.106;20.014;2023-02-03T05:56:33;14.90;;;7.55;;
38455;SDS011;24237;50.106;20.014;2023-02-03T05:58:59;18.55;;;8.02;;
38455;SDS011;24237;50.106;20.014;2023-02-03T06:01:24;15.88;;;8.10;;
38455;SDS011;24237;50.106;20.014;2023-02-03T06:03:50;17.90;;;8.07;;
38455;SDS011;24237;50.106;20.014;2023-02-03T06:06:16;15.63;;;8.43;;
38455;SDS011;24237;50.106;20.014;2023-02-03T06:08:42;13.60;;;7.88;;
38455;SDS011;24237;50.106;20.014;2023-02-03T06:11:08;17.90;;;7.72;;
38455;SDS011;24237;50.106;20.014;2023-02-03T06:13:34;16.70;;;8.13;;
38455;SDS011;24237;50.106;20.014;2023-02-03T06:16:00;20.95;;;8.70;;
38455;SDS011;24237;50.106;20.014;2023-02-03T06:18:26;19.55;;;9.20;;
38455;SDS011;24237;50.106;20.014;2023-02-03T06:20:52;20.23;;;9.25;;
38455;SDS011;24237;50.106;20.014;2023-02-03T06:23:17;26.17;;;9.60;;
38455;SDS011;24237;50.106;20.014;2023-02-03T06:25:44;25.20;;;8.98;;
38455;SDS011;24237;50.106;20.014;2023-02-03T06:28:12;21.08;;;10.20;;
38455;SDS011;24237;50.106;20.014;2023-02-03T06:30:38;20.10;;;9.63;;
38455;SDS011;24237;50.106;20.014;2023-02-03T06:33:03;19.60;;;10.05;;
38455;SDS011;24237;50.106;20.014;2023-02-03T06:35:29;22.58;;;10.70;;
38455;SDS011;24237;50.106;20.014;2023-02-03T06:37:55;25.05;;;10.88;;
38455;SDS011;24237;50.106;20.014;2023-02-03T06:40:20;20.45;;;10.90;;
38455;SDS011;24237;50.106;20.014;2023-02-03T06:42:46;25.73;;;10.93;;
38455;SDS011;24237;50.106;20.014;2023-02-03T06:45:13;21.67;;;10.32;;
38455;SDS011;24237;50.106;20.014;2023-02-03T06:47:40;21.60;;;10.32;;
38455;SDS011;24237;50.106;20.014;2023-02-03T06:50:10;26.48;;;9.80;;
38455;SDS011;24237;50.106;20.014;2023-02-03T06:52:37;17.25;;;8.82;;
38455;SDS011;24237;50.106;20.014;2023-02-03T06:55:03;23.80;;;9.23;;
38455;SDS011;24237;50.106;20.014;2023-02-03T06:57:30;20.25;;;8.40;;
38455;SDS011;24237;50.106;20.014;2023-02-03T06:59:55;19.88;;;8.30;;
38455;SDS011;24237;50.106;20.014;2023-02-03T07:02:21;22.17;;;9.02;;
38455;SDS011;24237;50.106;20.014;2023-02-03T07:04:47;20.40;;;8.48;;
38455;SDS011;24237;50.106;20.014;2023-02-03T07:07:12;19.92;;;8.20;;
38455;SDS011;24237;50.106;20.014;2023-02-03T07:09:38;19.77;;;8.05;;
38455;SDS011;24237;50.106;20.014;2023-02-03T07:12:05;18.15;;;8.02;;
38455;SDS011;24237;50.106;20.014;2023-02-03T07:14:32;18.52;;;8.10;;
38455;SDS011;24237;50.106;20.014;2023-02-03T07:17:03;15.35;;;7.97;;
38455;SDS011;24237;50.106;20.014;2023-02-03T07:19:29;18.77;;;8.23;;
38455;SDS011;24237;50.106;20.014;2023-02-03T07:21:55;19.73;;;8.52;;
38455;SDS011;24237;50.106;20.014;2023-02-03T07:24:21;24.95;;;9.40;;
38455;SDS011;24237;50.106;20.014;2023-02-03T07:33:15;16.73;;;8.30;;
38455;SDS011;24237;50.106;20.014;2023-02-03T07:35:57;16.35;;;8.50;;
38455;SDS011;24237;50.106;20.014;2023-02-03T07:45:19;14.02;;;6.28;;
38455;SDS011;24237;50.106;20.014;2023-02-03T07:51:03;14.63;;;6.45;;
38455;SDS011;24237;50.106;20.014;2023-02-03T07:53:29;15.02;;;6.80;;
38455;SDS011;24237;50.106;20.014;2023-02-03T07:55:58;17.70;;;6.78;;
38455;SDS011;24237;50.106;20.014;2023-02-03T07:58:25;13.57;;;6.57;;
38455;SDS011;24237;50.106;20.014;2023-02-03T08:00:50;17.23;;;6.28;;
38455;SDS011;24237;50.106;20.014;2023-02-03T08:03:16;15.02;;;7.00;;
38455;SDS011;24237;50.106;20.014;2023-02-03T08:06:02;14.25;;;6.82;;
38455;SDS011;24237;50.106;20.014;2023-02-03T08:08:27;11.63;;;5.80;;
38455;SDS011;24237;50.106;20.014;2023-02-03T08:10:56;15.68;;;6.43;;
38455;SDS011;24237;50.106;20.014;2023-02-03T08:16:51;14.75;;;5.03;;
38455;SDS011;24237;50.106;20.014;2023-02-03T08:19:26;15.47;;;5.33;;
38455;SDS011;24237;50.106;20.014;2023-02-03T08:25:15;11.88;;;5.38;;
38455;SDS011;24237;50.106;20.014;2023-02-03T08:27:41;12.00;;;4.78;;
38455;SDS011;24237;50.106;20.014;2023-02-03T08:30:13;11.35;;;5.00;;
38455;SDS011;24237;50.106;20.014;2023-02-03T08:32:39;10.15;;;4.45;;
38455;SDS011;24237;50.106;20.014;2023-02-03T08:35:05;11.13;;;4.50;;
38455;SDS011;24237;50.106;20.014;2023-02-03T08:37:31;12.07;;;4.97;;
38455;SDS011;24237;50.106;20.014;2023-02-03T08:39:57;10.48;;;4.60;;
38455;SDS011;24237;50.106;20.014;2023-02-03T08:42:23;8.45;;;4.03;;
38455;SDS011;24237;50.106;20.014;2023-02-03T08:44:49;9.88;;;4.53;;
38455;SDS011;24237;50.106;20.014;2023-02-03T08:47:15;8.88;;;4.00;;
38455;SDS011;24237;50.106;20.014;2023-02-03T08:49:42;12.30;;;5.45;;
38455;SDS011;24237;50.106;20.014;2023-02-03T08:52:09;13.75;;;4.85;;
38455;SDS011;24237;50.106;20.014;2023-02-03T08:54:36;10.88;;;4.93;;
38455;SDS011;24237;50.106;20.014;2023-02-03T08:57:02;9.98;;;4.65;;
38455;SDS011;24237;50.106;20.014;2023-02-03T08:59:28;14.73;;;4.82;;
38455;SDS011;24237;50.106;20.014;2023-02-03T09:01:55;9.30;;;4.00;;
38455;SDS011;24237;50.106;20.014;2023-02-03T09:04:23;9.88;;;3.72;;
38455;SDS011;24237;50.106;20.014;2023-02-03T09:06:52;9.70;;;3.97;;
38455;SDS011;24237;50.106;20.014;2023-02-03T09:09:21;9.15;;;3.97;;
38455;SDS011;24237;50.106;20.014;2023-02-03T09:11:47;11.00;;;3.85;;
38455;SDS011;24237;50.106;20.014;2023-02-03T09:14:13;7.32;;;3.50;;
38455;SDS011;24237;50.106;20.014;2023-02-03T09:16:39;10.18;;;4.05;;
38455;SDS011;24237;50.106;20.014;2023-02-03T09:19:04;8.65;;;3.40;;
38455;SDS011;24237;50.106;20.014;2023-02-03T09:21:30;6.53;;;3.33;;
38455;SDS011;24237;50.106;20.014;2023-02-03T09:23:59;7.22;;;3.53;;
38455;SDS011;24237;50.106;20.014;2023-02-03T09:26:26;7.80;;;3.72;;
38455;SDS011;24237;50.106;20.014;2023-02-03T09:28:51;8.73;;;3.63;;
38455;SDS011;24237;50.106;20.014;2023-02-03T09:31:17;9.85;;;4.50;;
38455;SDS011;24237;50.106;20.014;2023-02-03T09:33:43;11.95;;;3.58;;
38455;SDS011;24237;50.106;20.014;2023-02-03T09:36:09;10.55;;;4.00;;
38455;SDS011;24237;50.106;20.014;2023-02-03T09:38:35;10.15;;;3.95;;
38455;SDS011;24237;50.106;20.014;2023-02-03T09:46:32;10.68;;;3.60;;
38455;SDS011;24237;50.106;20.014;2023-02-03T09:49:03;10.73;;;3.63;;
38455;SDS011;24237;50.106;20.014;2023-02-03T09:51:42;10.48;;;3.53;;
38455;SDS011;24237;50.106;20.014;2023-02-03T09:54:19;10.77;;;4.47;;
38455;SDS011;24237;50.106;20.014;2023-02-03T09:56:50;9.75;;;4.20;;
38455;SDS011;24237;50.106;20.014;2023-02-03T09:59:20;10.50;;;3.85;;
38455;SDS011;24237;50.106;20.014;2023-02-03T10:01:49;9.73;;;4.47;;
38455;SDS011;24237;50.106;20.014;2023-02-03T10:09:52;9.63;;;4.28;;
38455;SDS011;24237;50.106;20.014;2023-02-03T10:17:56;9.75;;;4.53;;
38455;SDS011;24237;50.106;20.014;2023-02-03T10:23:04;11.85;;;4.35;;
38455;SDS011;24237;50.106;20.014;2023-02-03T10:25:41;9.30;;;3.63;;
38455;SDS011;24237;50.106;20.014;2023-02-03T10:28:13;10.35;;;4.18;;
38455;SDS011;24237;50.106;20.014;2023-02-03T10:30:49;12.10;;;4.68;;
38455;SDS011;24237;50.106;20.014;2023-02-03T10:33:29;10.98;;;4.85;;
38455;SDS011;24237;50.106;20.014;2023-02-03T10:36:03;8.60;;;4.38;;
38455;SDS011;24237;50.106;20.014;2023-02-03T10:41:25;9.02;;;4.18;;
38455;SDS011;24237;50.106;20.014;2023-02-03T10:43:54;10.00;;;3.72;;
38455;SDS011;24237;50.106;20.014;2023-02-03T10:48:54;8.82;;;3.88;;
38455;SDS011;24237;50.106;20.014;2023-02-03T10:51:27;14.73;;;4.50;;
38455;SDS011;24237;50.106;20.014;2023-02-03T10:53:57;10.43;;;4.45;;
38455;SDS011;24237;50.106;20.014;2023-02-03T10:56:24;12.05;;;5.03;;
38455;SDS011;24237;50.106;20.014;2023-02-03T10:58:54;11.50;;;4.65;;
38455;SDS011;24237;50.106;20.014;2023-02-03T11:04:23;8.15;;;4.30;;
38455;SDS011;24237;50.106;20.014;2023-02-03T11:07:20;15.43;;;4.43;;
38455;SDS011;24237;50.106;20.014;2023-02-03T11:09:49;11.05;;;4.03;;
38455;SDS011;24237;50.106;20.014;2023-02-03T11:12:16;6.85;;;3.45;;
38455;SDS011;24237;50.106;20.014;2023-02-03T11:14:47;22.35;;;5.20;;
38455;SDS011;24237;50.106;20.014;2023-02-03T11:20:13;28.90;;;4.97;;
38455;SDS011;24237;50.106;20.014;2023-02-03T11:22:41;9.73;;;3.60;;
38455;SDS011;24237;50.106;20.014;2023-02-03T11:25:25;7.30;;;3.80;;
38455;SDS011;24237;50.106;20.014;2023-02-03T11:27:56;12.67;;;5.50;;
38455;SDS011;24237;50.106;20.014;2023-02-03T11:30:29;10.07;;;3.55;;
38455;SDS011;24237;50.106;20.014;2023-02-03T11:32:55;9.00;;;4.40;;
38455;SDS011;24237;50.106;20.014;2023-02-03T11:35:25;12.95;;;4.10;;
38455;SDS011;24237;50.106;20.014;2023-02-03T11:37:57;6.90;;;3.50;;
38455;SDS011;24237;50.106;20.014;2023-02-03T11:40:26;10.52;;;3.70;;
38455;SDS011;24237;50.106;20.014;2023-02-03T11:45:37;14.98;;;5.55;;
38455;SDS011;24237;50.106;20.014;2023-02-03T11:50:40;15.25;;;4.72;;
38455;SDS011;24237;50.106;20.014;2023-02-03T12:05:12;11.23;;;4.70;;
38455;SDS011;24237;50.106;20.014;2023-02-03T12:07:54;9.15;;;4.15;;
38455;SDS011;24237;50.106;20.014;2023-02-03T12:10:35;14.43;;;4.50;;
38455;SDS011;24237;50.106;20.014;2023-02-03T12:21:41;16.48;;;5.95;;
38455;SDS011;24237;50.106;20.014;2023-02-03T12:29:27;11.80;;;5.57;;
38455;SDS011;24237;50.106;20.014;2023-02-03T12:32:28;12.52;;;6.05;;
38455;SDS011;24237;50.106;20.014;2023-02-03T12:35:04;10.45;;;5.63;;
38455;SDS011;24237;50.106;20.014;2023-02-03T12:40:28;14.50;;;6.32;;
38455;SDS011;24237;50.106;20.014;2023-02-03T12:43:19;10.48;;;4.90;;
38455;SDS011;24237;50.106;20.014;2023-02-03T12:51:14;11.40;;;6.15;;
38455;SDS011;24237;50.106;20.014;2023-02-03T12:53:49;12.13;;;5.88;;
38455;SDS011;24237;50.106;20.014;2023-02-03T12:56:23;11.10;;;6.20;;
38455;SDS011;24237;50.106;20.014;2023-02-03T12:58:56;13.52;;;6.78;;
38455;SDS011;24237;50.106;20.014;2023-02-03T13:01:35;15.50;;;6.25;;
38455;SDS011;24237;50.106;20.014;2023-02-03T13:04:23;12.35;;;5.95;;
38455;SDS011;24237;50.106;20.014;2023-02-03T13:09:51;15.25;;;6.40;;
38455;SDS011;24237;50.106;20.014;2023-02-03T13:14:54;14.50;;;6.88;;
38455;SDS011;24237;50.106;20.014;2023-02-03T13:17:41;14.85;;;7.25;;
38455;SDS011;24237;50.106;20.014;2023-02-03T13:20:19;15.43;;;7.05;;
38455;SDS011;24237;50.106;20.014;2023-02-03T13:22:48;12.55;;;6.75;;
38455;SDS011;24237;50.106;20.014;2023-02-03T13:31:27;17.15;;;7.90;;
38455;SDS011;24237;50.106;20.014;2023-02-03T13:36:59;25.25;;;9.52;;
38455;SDS011;24237;50.106;20.014;2023-02-03T13:42:39;13.38;;;7.38;;
38455;SDS011;24237;50.106;20.014;2023-02-03T13:47:47;13.45;;;6.20;;
38455;SDS011;24237;50.106;20.014;2023-02-03T13:50:26;16.08;;;6.63;;
38455;SDS011;24237;50.106;20.014;2023-02-03T13:53:07;13.43;;;6.68;;
38455;SDS011;24237;50.106;20.014;2023-02-03T13:55:54;11.00;;;6.10;;
38455;SDS011;24237;50.106;20.014;2023-02-03T13:58:24;11.32;;;6.22;;
38455;SDS011;24237;50.106;20.014;2023-02-03T14:05:49;10.60;;;5.10;;
38455;SDS011;24237;50.106;20.014;2023-02-03T14:08:40;13.68;;;6.30;;
38455;SDS011;24237;50.106;20.014;2023-02-03T14:16:35;9.95;;;4.32;;
38455;SDS011;24237;50.106;20.014;2023-02-03T14:19:02;7.82;;;4.78;;
38455;SDS011;24237;50.106;20.014;2023-02-03T14:24:10;10.32;;;5.28;;
38455;SDS011;24237;50.106;20.014;2023-02-03T14:29:05;9.73;;;4.72;;
38455;SDS011;24237;50.106;20.014;2023-02-03T14:37:14;10.93;;;4.93;;
38455;SDS011;24237;50.106;20.014;2023-02-03T14:43:00;11.27;;;5.95;;
38455;SDS011;24237;50.106;20.014;2023-02-03T14:48:31;12.43;;;6.57;;
38455;SDS011;24237;50.106;20.014;2023-02-03T14:59:47;16.08;;;7.97;;
38455;SDS011;24237;50.106;20.014;2023-02-03T15:02:19;12.68;;;8.13;;
38455;SDS011;24237;50.106;20.014;2023-02-03T15:07:37;11.25;;;6.68;;
38455;SDS011;24237;50.106;20.014;2023-02-03T15:10:17;9.82;;;5.88;;
38455;SDS011;24237;50.106;20.014;2023-02-03T15:12:48;11.77;;;6.20;;
38455;SDS011;24237;50.106;20.014;2023-02-03T15:15:19;11.52;;;6.18;;
38455;SDS011;24237;50.106;20.014;2023-02-03T15:17:47;10.60;;;5.18;;
38455;SDS011;24237;50.106;20.014;2023-02-03T15:22:45;10.93;;;5.38;;
38455;SDS011;24237;50.106;20.014;2023-02-03T15:25:24;6.07;;;3.40;;
38455;SDS011;24237;50.106;20.014;2023-02-03T15:28:17;9.30;;;5.07;;
38455;SDS011;24237;50.106;20.014;2023-02-03T15:30:44;8.40;;;4.88;;
38455;SDS011;24237;50.106;20.014;2023-02-03T15:33:14;9.63;;;5.15;;
38455;SDS011;24237;50.106;20.014;2023-02-03T15:35:44;10.88;;;4.60;;
38455;SDS011;24237;50.106;20.014;2023-02-03T15:38:17;9.82;;;5.43;;
38455;SDS011;24237;50.106;20.014;2023-02-03T15:40:48;9.82;;;5.00;;
38455;SDS011;24237;50.106;20.014;2023-02-03T15:45:55;11.95;;;5.60;;
38455;SDS011;24237;50.106;20.014;2023-02-03T15:48:43;10.63;;;6.10;;
38455;SDS011;24237;50.106;20.014;2023-02-03T15:59:20;15.77;;;7.78;;
38455;SDS011;24237;50.106;20.014;2023-02-03T16:01:49;14.20;;;6.60;;
38455;SDS011;24237;50.106;20.014;2023-02-03T16:04:15;17.87;;;7.53;;
38455;SDS011;24237;50.106;20.014;2023-02-03T16:06:44;15.18;;;6.57;;
38455;SDS011;24237;50.106;20.014;2023-02-03T16:09:32;15.13;;;6.70;;
38455;SDS011;24237;50.106;20.014;2023-02-03T16:14:46;13.18;;;6.72;;
38455;SDS011;24237;50.106;20.014;2023-02-03T16:22:43;9.45;;;5.72;;
38455;SDS011;24237;50.106;20.014;2023-02-03T16:25:20;13.75;;;6.80;;
38455;SDS011;24237;50.106;20.014;2023-02-03T16:27:56;12.32;;;6.25;;
38455;SDS011;24237;50.106;20.014;2023-02-03T16:30:52;14.18;;;6.80;;
38455;SDS011;24237;50.106;20.014;2023-02-03T16:33:43;16.55;;;8.00;;
38455;SDS011;24237;50.106;20.014;2023-02-03T16:36:28;17.95;;;6.90;;
38455;SDS011;24237;50.106;20.014;2023-02-03T16:39:12;19.95;;;7.55;;
38455;SDS011;24237;50.106;20.014;2023-02-03T16:41:57;14.70;;;6.50;;
38455;SDS011;24237;50.106;20.014;2023-02-03T16:44:42;16.80;;;6.60;;
38455;SDS011;24237;50.106;20.014;2023-02-03T16:47:28;18.60;;;7.10;;
38455;SDS011;24237;50.106;20.014;2023-02-03T16:50:14;13.10;;;6.25;;
38455;SDS011;24237;50.106;20.014;2023-02-03T16:53:06;15.10;;;6.38;;
38455;SDS011;24237;50.106;20.014;2023-02-03T16:55:43;11.10;;;5.68;;
38455;SDS011;24237;50.106;20.014;2023-02-03T16:58:08;12.98;;;7.00;;
38455;SDS011;24237;50.106;20.014;2023-02-03T17:00:36;12.65;;;6.30;;
38455;SDS011;24237;50.106;20.014;2023-02-03T17:03:05;11.65;;;6.28;;
38455;SDS011;24237;50.106;20.014;2023-02-03T17:05:36;10.32;;;6.25;;
38455;SDS011;24237;50.106;20.014;2023-02-03T17:08:02;14.52;;;7.30;;
38455;SDS011;24237;50.106;20.014;2023-02-03T17:10:28;15.98;;;7.07;;
38455;SDS011;24237;50.106;20.014;2023-02-03T17:12:54;11.95;;;6.55;;
38455;SDS011;24237;50.106;20.014;2023-02-03T17:15:20;19.58;;;7.20;;
38455;SDS011;24237;50.106;20.014;2023-02-03T17:17:45;20.63;;;7.80;;
38455;SDS011;24237;50.106;20.014;2023-02-03T17:20:11;17.33;;;7.50;;
38455;SDS011;24237;50.106;20.014;2023-02-03T17:22:36;18.50;;;7.85;;
38455;SDS011;24237;50.106;20.014;2023-02-03T17:25:02;15.70;;;7.47;;
38455;SDS011;24237;50.106;20.014;2023-02-03T17:27:28;18.38;;;8.88;;
38455;SDS011;24237;50.106;20.014;2023-02-03T17:29:54;21.10;;;8.13;;
38455;SDS011;24237;50.106;20.014;2023-02-03T17:32:19;23.02;;;9.05;;
38455;SDS011;24237;50.106;20.014;2023-02-03T17:34:45;13.15;;;6.43;;
38455;SDS011;24237;50.106;20.014;2023-02-03T17:37:10;18.23;;;9.35;;
38455;SDS011;24237;50.106;20.014;2023-02-03T17:39:36;21.83;;;9.25;;
38455;SDS011;24237;50.106;20.014;2023-02-03T17:42:02;24.05;;;9.45;;
38455;SDS011;24237;50.106;20.014;2023-02-03T17:44:27;19.80;;;8.93;;
38455;SDS011;24237;50.106;20.014;2023-02-03T17:46:53;19.05;;;9.60;;
38455;SDS011;24237;50.106;20.014;2023-02-03T17:49:18;18.73;;;9.20;;
38455;SDS011;24237;50.106;20.014;2023-02-03T17:51:44;18.17;;;9.43;;
38455;SDS011;24237;50.106;20.014;2023-02-03T17:54:10;17.10;;;8.88;;
38455;SDS011;24237;50.106;20.014;2023-02-03T17:56:35;23.40;;;10.23;;
38455;SDS011;24237;50.106;20.014;2023-02-03T17:59:02;19.40;;;8.95;;
38455;SDS011;24237;50.106;20.014;2023-02-03T18:01:31;21.40;;;11.25;;
38455;SDS011;24237;50.106;20.014;2023-02-03T18:04:02;19.17;;;9.73;;
38455;SDS011;24237;50.106;20.014;2023-02-03T18:06:29;20.55;;;9.32;;
38455;SDS011;24237;50.106;20.014;2023-02-03T18:08:59;27.20;;;10.63;;
38455;SDS011;24237;50.106;20.014;2023-02-03T18:11:27;23.65;;;9.55;;